Time;durP1;ratioP1;P1;durP2;ratioP2;P2;SDS_P1;SDS_P2;PMS_P1;PMS_P2;Temp;Humidity;BMP_temperature;BMP_pressure;BME280_temperature;BME280_humidity;BME280_pressure;Samples;Min_cycle;Max_cycle;Signal;HPM_P1;HPM_P2
2022/07/16 00:02:55;;;;;;;6.40;2.90;;;9.20;99.90;;;;;;4391838;28;655639;-65
2022/07/16 00:05:42;;;;;;;8.82;2.60;;;9.00;99.90;;;;;;4426129;28;656707;-66
2022/07/16 00:08:31;;;;;;;6.57;2.57;;;8.80;99.90;;;;;;4425875;28;655060;-65
2022/07/16 00:11:18;;;;;;;8.87;2.70;;;8.70;99.90;;;;;;4395255;28;656121;-65
2022/07/16 00:14:05;;;;;;;12.87;2.90;;;8.80;99.90;;;;;;4402922;28;655399;-65
2022/07/16 00:16:52;;;;;;;8.77;2.83;;;8.90;99.90;;;;;;4430493;28;657202;-65
2022/07/16 00:19:39;;;;;;;9.33;3.03;;;8.80;99.90;;;;;;4414657;28;655527;-65
2022/07/16 00:22:26;;;;;;;5.53;2.97;;;8.80;99.90;;;;;;4407195;28;655387;-66
2022/07/16 00:25:15;;;;;;;5.70;2.80;;;8.80;99.90;;;;;;4414763;28;655692;-65
2022/07/16 00:28:02;;;;;;;5.73;3.00;;;8.80;99.90;;;;;;4402393;28;657027;-65
2022/07/16 00:30:49;;;;;;;8.48;3.10;;;8.70;99.90;;;;;;4419524;28;655832;-66
2022/07/16 00:33:36;;;;;;;6.20;3.20;;;8.70;99.90;;;;;;4401234;28;657102;-65
2022/07/16 00:36:23;;;;;;;6.23;3.00;;;8.50;99.90;;;;;;4414848;28;657186;-65
2022/07/16 00:39:11;;;;;;;10.60;3.03;;;8.50;99.90;;;;;;4397301;28;655655;-65
2022/07/16 00:41:59;;;;;;;6.27;2.80;;;8.50;99.90;;;;;;4421774;28;657246;-65
2022/07/16 00:44:46;;;;;;;12.47;3.70;;;8.50;99.90;;;;;;4401302;28;655486;-65
2022/07/16 00:47:33;;;;;;;12.37;2.90;;;8.60;99.90;;;;;;4413926;28;656641;-65
2022/07/16 00:50:20;;;;;;;6.67;2.93;;;8.60;99.90;;;;;;4398532;28;656942;-66
2022/07/16 00:53:09;;;;;;;6.00;2.60;;;8.60;99.90;;;;;;4413208;28;655987;-65
2022/07/16 00:55:56;;;;;;;10.47;3.10;;;8.60;99.90;;;;;;4407847;28;655730;-65
2022/07/16 00:58:45;;;;;;;6.07;2.67;;;8.60;99.90;;;;;;4420613;28;658148;-65
2022/07/16 01:01:32;;;;;;;8.57;2.73;;;8.60;99.90;;;;;;4402753;28;655978;-66
2022/07/16 01:04:19;;;;;;;7.83;3.00;;;8.50;99.90;;;;;;4423988;28;655694;-66
2022/07/16 01:07:08;;;;;;;5.57;3.13;;;8.30;99.90;;;;;;4403813;28;657060;-65
2022/07/16 01:09:55;;;;;;;7.63;2.80;;;8.30;99.90;;;;;;4398834;28;656309;-65
2022/07/16 01:12:43;;;;;;;7.20;3.17;;;8.40;99.90;;;;;;4418541;28;656641;-65
2022/07/16 01:15:31;;;;;;;5.80;2.93;;;8.50;99.90;;;;;;4403484;28;655626;-65
2022/07/16 01:18:19;;;;;;;6.90;2.77;;;8.70;99.90;;;;;;4423303;28;656263;-65
2022/07/16 01:21:06;;;;;;;10.77;2.97;;;8.70;99.90;;;;;;4405207;28;656172;-65
2022/07/16 01:23:54;;;;;;;8.57;2.53;;;8.60;99.90;;;;;;4419984;28;656760;-66
2022/07/16 01:26:42;;;;;;;4.97;2.63;;;8.70;99.90;;;;;;4393300;28;655413;-65
2022/07/16 01:29:29;;;;;;;5.77;2.60;;;8.60;99.90;;;;;;4414829;28;655456;-66
2022/07/16 01:32:16;;;;;;;6.40;2.50;;;8.60;99.90;;;;;;4402215;28;655777;-66
2022/07/16 01:35:04;;;;;;;11.20;2.47;;;8.50;99.90;;;;;;4416176;28;655888;-66
2022/07/16 01:37:51;;;;;;;6.10;2.53;;;8.40;99.90;;;;;;4399272;28;656721;-66
2022/07/16 01:40:39;;;;;;;6.13;2.70;;;8.40;99.90;;;;;;4424044;28;656139;-66
2022/07/16 01:43:27;;;;;;;7.30;2.43;;;8.30;99.90;;;;;;4400380;28;655869;-66
2022/07/16 01:46:14;;;;;;;4.70;2.60;;;8.40;99.90;;;;;;4415527;28;655212;-66
2022/07/16 01:49:01;;;;;;;12.27;2.70;;;8.50;99.90;;;;;;4400088;28;655617;-66
2022/07/16 01:51:48;;;;;;;7.03;3.00;;;8.40;99.90;;;;;;4423566;28;657085;-66
2022/07/16 01:54:36;;;;;;;5.50;2.80;;;8.40;99.90;;;;;;4396033;28;656126;-65
2022/07/16 01:57:24;;;;;;;9.90;2.90;;;8.30;99.90;;;;;;4424762;28;656217;-65
2022/07/16 02:00:12;;;;;;;11.40;2.70;;;8.30;99.90;;;;;;4401875;28;655768;-65
2022/07/16 02:03:00;;;;;;;7.53;2.87;;;8.30;99.90;;;;;;4418024;28;656706;-65
2022/07/16 02:05:47;;;;;;;8.10;2.67;;;8.30;99.90;;;;;;4425018;28;656896;-65
2022/07/16 02:08:34;;;;;;;12.40;3.40;;;8.20;99.90;;;;;;4417632;28;656095;-65
2022/07/16 02:11:21;;;;;;;6.57;2.87;;;8.20;99.90;;;;;;4395470;28;656591;-66
2022/07/16 02:14:10;;;;;;;7.13;3.90;;;8.20;99.90;;;;;;4419319;28;656014;-65
2022/07/16 02:16:57;;;;;;;7.10;3.60;;;8.20;99.90;;;;;;4393925;28;656759;-65
2022/07/16 02:19:44;;;;;;;6.77;3.30;;;8.10;99.90;;;;;;4421087;28;655418;-66
2022/07/16 02:22:31;;;;;;;5.67;3.40;;;8.00;99.90;;;;;;4401523;28;655350;-65
2022/07/16 02:25:18;;;;;;;10.38;3.70;;;8.00;99.90;;;;;;4421518;28;656001;-65
2022/07/16 02:28:08;;;;;;;11.17;3.30;;;7.90;99.90;;;;;;4397549;28;656631;-66
2022/07/16 02:30:57;;;;;;;7.23;3.37;;;8.00;99.90;;;;;;4398883;28;656695;-66
2022/07/16 02:33:44;;;;;;;11.07;3.77;;;8.00;99.90;;;;;;4417538;28;655217;-65
2022/07/16 02:36:31;;;;;;;10.47;3.13;;;7.90;99.90;;;;;;4399083;28;657240;-66
2022/07/16 02:39:18;;;;;;;8.17;3.33;;;7.90;99.90;;;;;;4416218;28;656899;-66
2022/07/16 02:42:05;;;;;;;9.87;3.57;;;7.80;99.90;;;;;;4398832;28;655404;-66
2022/07/16 02:44:52;;;;;;;6.90;3.13;;;7.80;99.90;;;;;;4420970;28;656285;-66
2022/07/16 02:47:41;;;;;;;4.90;3.40;;;7.70;99.90;;;;;;4418080;28;655117;-66
2022/07/16 02:50:28;;;;;;;7.37;3.60;;;7.80;99.90;;;;;;4394270;28;655985;-66
2022/07/16 02:53:15;;;;;;;10.37;3.80;;;7.80;99.90;;;;;;4399331;28;655343;-66
2022/07/16 02:56:02;;;;;;;10.83;4.30;;;7.90;99.90;;;;;;4420099;28;656748;-66
2022/07/16 02:58:49;;;;;;;8.77;4.00;;;7.90;99.90;;;;;;4421018;28;656778;-66
2022/07/16 03:01:36;;;;;;;10.73;4.50;;;7.90;99.90;;;;;;4394807;28;656979;-66
2022/07/16 03:04:25;;;;;;;11.73;4.50;;;7.80;99.90;;;;;;4412744;28;657226;-66
2022/07/16 03:07:12;;;;;;;8.90;4.77;;;7.90;99.90;;;;;;4394684;28;656893;-66
2022/07/16 03:09:59;;;;;;;13.77;5.30;;;7.90;99.90;;;;;;4414419;28;655230;-66
2022/07/16 03:12:46;;;;;;;10.43;5.27;;;7.90;99.90;;;;;;4399663;28;656707;-66
2022/07/16 03:15:33;;;;;;;10.83;5.43;;;7.80;99.90;;;;;;4419454;28;657294;-66
2022/07/16 03:18:21;;;;;;;14.77;5.17;;;7.80;99.90;;;;;;4399509;28;657034;-66
2022/07/16 03:21:09;;;;;;;18.00;5.43;;;7.90;99.90;;;;;;4421928;28;657525;-66
2022/07/16 03:23:56;;;;;;;17.53;5.97;;;7.90;99.90;;;;;;4396434;28;656375;-66
2022/07/16 03:26:43;;;;;;;18.63;5.47;;;7.90;99.90;;;;;;4415405;28;656723;-66
2022/07/16 03:29:30;;;;;;;8.17;4.93;;;7.90;99.90;;;;;;4397743;28;656767;-66
2022/07/16 03:32:17;;;;;;;15.67;5.80;;;8.00;99.90;;;;;;4415969;28;657369;-66
2022/07/16 03:35:06;;;;;;;16.67;5.67;;;8.00;99.90;;;;;;4413552;28;656822;-66
2022/07/16 03:40:59;;;;;;;13.80;5.97;;;8.10;99.90;;;;;;4396794;28;656569;-66
2022/07/16 03:43:46;;;;;;;12.53;5.40;;;8.30;99.90;;;;;;4396779;28;656898;-66
2022/07/16 03:46:34;;;;;;;11.90;4.50;;;8.20;99.90;;;;;;4417002;28;658051;-66
2022/07/16 03:49:21;;;;;;;13.13;5.03;;;8.30;99.90;;;;;;4396433;28;657261;-67
2022/07/16 03:52:08;;;;;;;13.63;4.83;;;8.40;99.90;;;;;;4414690;28;656611;-66
2022/07/16 03:54:57;;;;;;;9.90;5.23;;;8.50;99.90;;;;;;4403406;28;656197;-66
2022/07/16 03:57:44;;;;;;;10.05;5.18;;;8.60;99.90;;;;;;4415311;28;655488;-66
2022/07/16 04:00:31;;;;;;;13.57;5.63;;;8.80;99.90;;;;;;4388133;28;657003;-66
2022/07/16 04:03:18;;;;;;;14.20;6.30;;;8.90;99.90;;;;;;4417415;28;657126;-66
2022/07/16 04:06:06;;;;;;;14.77;7.37;;;9.10;99.90;;;;;;4397304;28;656169;-66
2022/07/16 04:08:53;;;;;;;19.13;7.63;;;9.30;99.90;;;;;;4414514;28;657545;-66
2022/07/16 04:11:41;;;;;;;20.53;7.83;;;9.40;99.90;;;;;;4400292;28;655908;-66
2022/07/16 04:14:29;;;;;;;17.97;7.23;;;9.60;99.90;;;;;;4410736;28;656769;-66
2022/07/16 04:17:16;;;;;;;16.37;7.33;;;9.70;99.90;;;;;;4398378;28;656424;-66
2022/07/16 04:20:04;;;;;;;20.00;7.73;;;9.90;99.90;;;;;;4417907;28;657889;-66
2022/07/16 04:22:51;;;;;;;18.70;7.60;;;10.00;99.90;;;;;;4395798;28;658404;-66
2022/07/16 04:25:38;;;;;;;16.67;7.83;;;10.20;99.90;;;;;;4415907;28;659074;-66
2022/07/16 04:28:26;;;;;;;17.30;7.50;;;10.40;99.90;;;;;;4397940;28;657700;-66
2022/07/16 04:31:14;;;;;;;21.03;8.00;;;10.60;99.90;;;;;;4413191;28;658558;-66
2022/07/16 04:34:01;;;;;;;13.03;7.00;;;11.10;99.90;;;;;;4395581;28;657707;-66
2022/07/16 04:36:48;;;;;;;14.57;7.67;;;11.20;99.90;;;;;;4415043;28;658219;-66
2022/07/16 04:39:35;;;;;;;13.13;7.70;;;11.50;99.90;;;;;;4398766;28;657789;-66
2022/07/16 04:42:22;;;;;;;13.30;6.40;;;11.80;99.90;;;;;;4418160;28;657815;-66
2022/07/16 04:45:11;;;;;;;13.23;7.00;;;11.90;99.90;;;;;;4412993;28;657668;-66
2022/07/16 04:47:58;;;;;;;18.13;7.53;;;12.00;99.90;;;;;;4389094;28;657578;-66
2022/07/16 04:50:45;;;;;;;15.70;6.80;;;12.20;99.90;;;;;;4400229;28;657546;-66
2022/07/16 04:53:33;;;;;;;18.13;6.80;;;12.30;99.90;;;;;;4417232;28;658325;-66
2022/07/16 04:56:20;;;;;;;13.10;6.47;;;12.40;99.90;;;;;;4407358;28;657527;-66
2022/07/16 04:59:07;;;;;;;11.23;6.33;;;12.50;99.90;;;;;;4420327;28;657447;-66
2022/07/16 05:02:56;;;;;;;12.00;6.73;;;12.60;99.90;;;;;;4415078;28;657876;-66
2022/07/16 05:05:04;;;;;;;15.57;6.47;;;12.80;99.90;;;;;;4389153;28;657679;-66
2022/07/16 05:07:51;;;;;;;10.30;6.20;;;12.80;99.90;;;;;;4394658;28;657578;-67
2022/07/16 05:10:38;;;;;;;28.47;6.93;;;12.90;99.90;;;;;;4415645;28;658390;-66
2022/07/16 05:13:25;;;;;;;15.77;6.87;;;12.90;99.90;;;;;;4394168;28;657901;-66
2022/07/16 05:16:12;;;;;;;19.17;6.53;;;13.00;99.90;;;;;;4409499;28;657733;-67
2022/07/16 05:19:01;;;;;;;16.00;6.70;;;13.20;99.90;;;;;;4410924;28;657464;-66
2022/07/16 05:21:48;;;;;;;17.57;6.63;;;13.20;99.90;;;;;;4414449;28;657476;-66
2022/07/16 05:24:36;;;;;;;14.80;6.90;;;13.30;99.90;;;;;;4396223;28;657583;-66
2022/07/16 05:27:23;;;;;;;19.53;6.77;;;13.30;99.90;;;;;;4414293;28;657908;-66
2022/07/16 05:30:10;;;;;;;16.23;6.90;;;13.40;99.90;;;;;;4399692;28;657438;-66
2022/07/16 05:32:57;;;;;;;18.23;6.13;;;13.50;99.90;;;;;;4412703;28;658285;-67
2022/07/16 05:35:46;;;;;;;14.73;6.23;;;13.40;99.90;;;;;;4410718;28;658377;-66
2022/07/16 05:38:34;;;;;;;17.27;6.30;;;13.30;99.90;;;;;;4420984;28;657466;-67
2022/07/16 05:41:21;;;;;;;14.17;6.23;;;13.40;99.90;;;;;;4375039;28;658077;-67
2022/07/16 05:44:08;;;;;;;20.00;6.40;;;13.60;99.90;;;;;;4398620;28;657958;-66
2022/07/16 05:46:55;;;;;;;13.17;5.93;;;13.70;99.90;;;;;;4390853;28;657454;-67
2022/07/16 05:49:42;;;;;;;13.48;5.75;;;13.80;99.90;;;;;;4398661;28;658534;-67
2022/07/16 05:52:31;;;;;;;13.70;5.70;;;14.10;99.90;;;;;;4400931;28;657617;-67
2022/07/16 05:55:18;;;;;;;16.90;6.03;;;14.30;99.90;;;;;;4375316;28;658278;-66
2022/07/16 05:58:05;;;;;;;15.03;5.50;;;14.50;99.90;;;;;;4386736;28;657657;-66
2022/07/16 06:00:52;;;;;;;12.90;5.47;;;14.70;99.90;;;;;;4401835;28;658733;-67
2022/07/16 06:03:39;;;;;;;13.53;5.47;;;14.90;99.90;;;;;;4402983;28;657608;-67
2022/07/16 06:06:26;;;;;;;12.83;5.67;;;15.20;99.90;;;;;;4375778;28;657809;-66
2022/07/16 06:09:15;;;;;;;14.30;5.60;;;15.30;99.90;;;;;;4396350;28;658101;-67
2022/07/16 06:12:03;;;;;;;19.33;9.87;;;15.50;99.90;;;;;;4378277;28;658011;-66
2022/07/16 06:14:50;;;;;;;18.90;9.50;;;15.60;99.90;;;;;;4393769;28;658469;-67
2022/07/16 06:17:37;;;;;;;24.50;11.17;;;15.70;99.90;;;;;;4401908;28;658374;-66
2022/07/16 06:20:24;;;;;;;16.83;7.80;;;15.70;99.90;;;;;;4399036;28;658727;-67
2022/07/16 06:23:11;;;;;;;18.30;7.80;;;15.90;99.90;;;;;;4375915;28;657670;-67
2022/07/16 06:26:00;;;;;;;16.43;7.20;;;16.10;99.90;;;;;;4400757;28;657477;-67
2022/07/16 06:28:47;;;;;;;21.77;8.27;;;16.20;99.90;;;;;;4373871;28;658788;-67
2022/07/16 06:31:34;;;;;;;21.17;9.27;;;16.10;99.90;;;;;;4397829;28;657844;-67
2022/07/16 06:34:21;;;;;;;19.30;9.17;;;16.30;99.90;;;;;;4375886;28;657500;-67
2022/07/16 06:37:08;;;;;;;25.95;8.75;;;16.60;99.90;;;;;;4398527;28;658350;-67
2022/07/16 06:39:55;;;;;;;17.03;7.97;;;16.40;99.90;;;;;;4386722;28;657896;-67
2022/07/16 06:42:44;;;;;;;23.00;8.80;;;16.10;99.90;;;;;;4418220;28;658350;-67
2022/07/16 06:45:31;;;;;;;21.67;9.30;;;16.20;99.90;;;;;;4390984;28;659734;-67
2022/07/16 06:48:18;;;;;;;24.70;8.80;;;16.70;99.90;;;;;;4418779;28;657677;-67
2022/07/16 06:51:05;;;;;;;29.27;11.40;;;16.70;99.90;;;;;;4395700;28;657548;-66
2022/07/16 06:53:52;;;;;;;28.43;13.13;;;16.40;99.90;;;;;;4413575;28;659752;-66
2022/07/16 06:56:40;;;;;;;26.50;12.43;;;16.40;99.60;;;;;;4414450;28;659812;-67
2022/07/16 06:59:29;;;;;;;29.57;13.03;;;16.50;99.90;;;;;;4416465;28;658949;-66
2022/07/16 07:02:16;;;;;;;33.83;15.87;;;16.70;98.10;;;;;;4397005;28;658429;-66
2022/07/16 07:05:03;;;;;;;39.97;16.27;;;16.60;96.70;;;;;;4419683;28;658857;-67
2022/07/16 07:07:51;;;;;;;23.53;9.87;;;17.00;98.80;;;;;;4398337;28;658669;-66
2022/07/16 07:10:45;;;;;;;24.87;10.63;;;17.20;92.10;;;;;;4456516;28;658667;-63
2022/07/16 07:13:32;;;;;;;22.17;9.63;;;16.90;92.20;;;;;;4384013;28;658554;-63
2022/07/16 07:16:21;;;;;;;20.35;9.40;;;17.20;91.90;;;;;;4419093;28;657308;-63
2022/07/16 07:19:08;;;;;;;17.00;7.70;;;17.30;90.20;;;;;;4396580;28;658748;-64
2022/07/16 07:21:55;;;;;;;14.80;6.60;;;17.50;91.90;;;;;;4396690;28;657725;-64
2022/07/16 07:24:43;;;;;;;9.40;3.93;;;17.60;92.70;;;;;;4415719;28;658210;-64
2022/07/16 07:27:30;;;;;;;13.07;4.90;;;17.90;86.10;;;;;;4411827;28;656816;-64
2022/07/16 07:30:18;;;;;;;5.60;2.60;;;17.90;88.70;;;;;;4417367;28;658904;-63
2022/07/16 07:33:06;;;;;;;5.47;2.83;;;18.00;87.90;;;;;;4404195;28;657959;-64
2022/07/16 07:35:54;;;;;;;11.37;2.93;;;18.20;90.00;;;;;;4424204;28;656383;-63
2022/07/16 07:38:41;;;;;;;8.07;2.53;;;18.30;84.60;;;;;;4401232;28;658167;-63
2022/07/16 07:41:28;;;;;;;14.00;2.70;;;18.40;82.00;;;;;;4429592;28;657351;-63
2022/07/16 07:44:15;;;;;;;10.00;2.23;;;18.60;82.00;;;;;;4412615;28;657605;-65
2022/07/16 07:47:02;;;;;;;10.13;2.50;;;18.30;80.40;;;;;;4432089;28;657726;-63
2022/07/16 07:49:53;;;;;;;5.17;2.07;;;18.10;84.10;;;;;;4427936;28;657412;-64
2022/07/16 07:52:40;;;;;;;5.27;1.70;;;18.00;82.90;;;;;;4409264;28;656642;-64
2022/07/16 07:55:27;;;;;;;3.70;1.60;;;17.90;79.80;;;;;;4420696;28;657921;-63
2022/07/16 07:58:15;;;;;;;6.97;2.00;;;17.90;80.20;;;;;;4417845;28;656207;-65
2022/07/16 08:01:02;;;;;;;7.17;2.10;;;18.00;79.70;;;;;;4419749;28;657009;-64
2022/07/16 08:03:55;;;;;;;7.03;2.00;;;17.70;78.00;;;;;;4411905;28;656893;-64
2022/07/16 08:06:44;;;;;;;5.30;1.33;;;18.20;78.30;;;;;;4379163;28;657255;-64
2022/07/16 08:09:31;;;;;;;9.20;1.60;;;18.10;76.50;;;;;;4406681;28;656192;-66
2022/07/16 08:12:18;;;;;;;6.30;1.60;;;18.20;80.50;;;;;;4415300;28;657108;-63
2022/07/16 08:15:06;;;;;;;6.37;2.00;;;18.70;77.70;;;;;;4410427;28;656501;-65
2022/07/16 08:17:53;;;;;;;7.67;1.80;;;18.80;77.30;;;;;;4431177;28;657142;-63
2022/07/16 08:20:41;;;;;;;7.73;1.80;;;18.70;76.10;;;;;;4397661;28;656559;-64
2022/07/16 08:26:33;;;;;;;12.83;3.80;;;18.10;76.60;;;;;;4392208;28;656865;-63
2022/07/16 08:29:20;;;;;;;10.03;1.87;;;18.80;80.30;;;;;;4398773;28;657538;-64
2022/07/16 08:32:08;;;;;;;10.90;1.63;;;18.80;76.80;;;;;;4420017;28;658792;-63
2022/07/16 08:34:55;;;;;;;3.23;1.30;;;19.20;75.30;;;;;;4404022;28;657375;-64
2022/07/16 08:37:43;;;;;;;10.07;2.17;;;19.70;73.50;;;;;;4419716;28;656940;-65
2022/07/16 08:40:31;;;;;;;9.18;2.30;;;19.90;73.50;;;;;;4403273;28;657928;-65
2022/07/16 08:43:19;;;;;;;9.73;2.67;;;20.00;66.60;;;;;;4415346;28;656293;-64
2022/07/16 08:46:07;;;;;;;10.93;2.13;;;19.70;68.60;;;;;;4398726;28;658034;-63
2022/07/16 08:48:54;;;;;;;3.57;1.00;;;19.60;67.60;;;;;;4424475;28;657283;-63
2022/07/16 08:51:42;;;;;;;3.77;1.50;;;19.70;66.60;;;;;;4408980;28;656164;-64
2022/07/16 08:54:29;;;;;;;6.00;1.57;;;19.30;67.30;;;;;;4414465;28;656603;-63
2022/07/16 08:57:18;;;;;;;7.70;1.97;;;19.60;70.40;;;;;;4395433;28;657779;-64
2022/07/16 09:00:07;;;;;;;5.40;1.50;;;19.10;65.40;;;;;;4401689;28;656741;-65
2022/07/16 09:02:54;;;;;;;9.17;2.03;;;19.10;68.40;;;;;;4423975;28;656385;-63
2022/07/16 09:05:41;;;;;;;5.93;1.70;;;19.70;70.30;;;;;;4407829;28;656272;-64
2022/07/16 09:08:28;;;;;;;4.37;1.50;;;20.00;71.00;;;;;;4423774;28;657780;-64
2022/07/16 09:11:19;;;;;;;5.77;1.63;;;20.30;65.80;;;;;;4412717;28;656515;-65
2022/07/16 09:14:09;;;;;;;7.90;1.70;;;20.50;68.00;;;;;;4401583;28;656627;-64
2022/07/16 09:16:56;;;;;;;3.80;1.83;;;19.80;65.00;;;;;;4402058;28;656919;-64
2022/07/16 09:19:43;;;;;;;6.37;1.37;;;20.00;66.30;;;;;;4422996;28;657619;-63
2022/07/16 09:22:30;;;;;;;11.38;2.63;;;19.90;64.00;;;;;;4408930;28;656723;-64
2022/07/16 09:25:17;;;;;;;5.13;1.37;;;20.40;68.40;;;;;;4430672;28;659580;-64
2022/07/16 09:28:04;;;;;;;6.47;1.90;;;21.00;63.60;;;;;;4427312;28;656486;-64
2022/07/16 09:30:53;;;;;;;3.73;1.30;;;21.50;64.70;;;;;;4405858;28;656580;-64
2022/07/16 09:33:40;;;;;;;6.83;1.67;;;21.20;59.40;;;;;;4408336;28;656794;-65
2022/07/16 09:36:27;;;;;;;4.20;1.63;;;21.30;65.40;;;;;;4404252;28;656803;-64
2022/07/16 09:39:15;;;;;;;6.80;1.90;;;20.60;61.10;;;;;;4429680;28;656792;-63
2022/07/16 09:42:02;;;;;;;5.43;1.77;;;19.90;62.70;;;;;;4417247;28;657392;-64
2022/07/16 09:44:49;;;;;;;4.00;1.37;;;20.00;65.60;;;;;;4430766;28;656509;-64
2022/07/16 09:47:38;;;;;;;8.43;1.80;;;21.00;63.90;;;;;;4401954;28;657401;-64
2022/07/16 09:50:27;;;;;;;4.93;1.33;;;21.20;59.40;;;;;;4434501;28;656857;-65
2022/07/16 09:53:15;;;;;;;9.40;1.90;;;20.90;58.60;;;;;;4423858;28;657133;-65
2022/07/16 09:56:03;;;;;;;4.30;2.03;;;20.30;61.30;;;;;;4419391;28;656944;-65
2022/07/16 09:58:51;;;;;;;8.37;1.70;;;21.00;61.80;;;;;;4394937;28;656704;-64
2022/07/16 10:01:38;;;;;;;2.47;1.30;;;21.50;61.00;;;;;;4428077;28;656378;-65
2022/07/16 10:04:27;;;;;;;6.20;1.60;;;21.60;63.30;;;;;;4411575;28;656713;-65
2022/07/16 10:07:14;;;;;;;5.53;2.10;;;21.20;59.60;;;;;;4423129;28;656047;-64
2022/07/16 10:10:01;;;;;;;8.20;1.60;;;20.70;61.10;;;;;;4402351;28;656307;-64
2022/07/16 10:12:48;;;;;;;7.53;1.60;;;20.80;62.10;;;;;;4430400;28;657758;-64
2022/07/16 10:15:35;;;;;;;4.57;1.27;;;21.30;59.70;;;;;;4406843;28;656736;-64
2022/07/16 10:18:37;;;;;;;10.07;1.50;;;21.00;58.60;;;;;;4419649;28;658041;-64
2022/07/16 10:21:25;;;;;;;5.10;1.30;;;21.20;59.70;;;;;;4412575;28;657452;-64
2022/07/16 10:24:13;;;;;;;2.87;1.33;;;20.60;59.30;;;;;;4400987;28;657990;-64
2022/07/16 10:27:18;;;;;;;4.80;1.50;;;20.70;58.80;;;;;;4404596;28;656687;-64
2022/07/16 10:30:14;;;;;;;2.38;1.30;;;20.40;64.80;;;;;;4375400;28;656799;-65
2022/07/16 10:33:13;;;;;;;5.80;1.70;;;20.90;62.40;;;;;;4413113;28;656768;-64
2022/07/16 10:36:05;;;;;;;8.20;1.23;;;21.40;61.20;;;;;;4385634;28;656669;-64
2022/07/16 10:39:05;;;;;;;4.47;1.40;;;21.60;59.80;;;;;;4406279;28;658069;-64
2022/07/16 10:41:52;;;;;;;2.97;1.03;;;21.50;56.70;;;;;;4384819;28;656517;-64
2022/07/16 10:44:44;;;;;;;5.90;1.10;;;21.30;56.10;;;;;;4415446;28;656529;-65
2022/07/16 10:47:50;;;;;;;2.47;0.87;;;21.10;59.30;;;;;;4404227;28;656304;-63
2022/07/16 10:50:37;;;;;;;20.23;1.60;;;20.70;56.70;;;;;;4410386;28;656994;-65
2022/07/16 10:53:24;;;;;;;5.97;1.47;;;20.50;58.90;;;;;;4431217;28;657184;-64
2022/07/16 10:56:34;;;;;;;3.83;1.23;;;21.00;57.70;;;;;;4411185;28;656909;-64
2022/07/16 10:59:21;;;;;;;5.33;1.23;;;21.00;57.70;;;;;;4411475;28;656388;-64
2022/07/16 11:02:10;;;;;;;3.97;1.30;;;20.80;58.80;;;;;;4425880;28;656589;-64
2022/07/16 11:04:57;;;;;;;5.77;1.17;;;21.70;58.80;;;;;;4402442;28;658075;-63
2022/07/16 11:07:44;;;;;;;6.32;1.25;;;21.00;58.00;;;;;;4425993;28;656427;-64
2022/07/16 11:10:31;;;;;;;6.37;1.67;;;21.70;58.30;;;;;;4410198;28;656995;-64
2022/07/16 11:13:19;;;;;;;2.43;1.37;;;20.90;57.30;;;;;;4429372;28;657419;-64
2022/07/16 11:16:10;;;;;;;7.57;2.23;;;20.40;58.80;;;;;;4401040;28;657349;-64
2022/07/16 11:18:59;;;;;;;5.97;1.40;;;21.40;61.10;;;;;;4406908;28;658040;-63
2022/07/16 11:21:53;;;;;;;5.00;1.33;;;21.40;58.70;;;;;;4402194;28;656874;-64
2022/07/16 11:24:47;;;;;;;2.33;1.17;;;21.40;57.60;;;;;;4388222;28;656162;-65
2022/07/16 11:27:36;;;;;;;2.70;1.27;;;21.00;57.60;;;;;;4405853;28;656644;-64
2022/07/16 11:30:25;;;;;;;1.87;1.03;;;20.80;59.30;;;;;;4398485;28;657223;-63
2022/07/16 11:33:12;;;;;;;2.97;1.13;;;21.40;59.80;;;;;;4405722;28;657931;-63
2022/07/16 11:36:08;;;;;;;2.33;1.00;;;22.30;58.50;;;;;;4429387;28;656314;-64
2022/07/16 11:38:57;;;;;;;3.37;1.20;;;21.70;57.20;;;;;;4386460;28;656495;-65
2022/07/16 11:41:47;;;;;;;4.37;1.20;;;22.00;59.20;;;;;;4429156;28;656518;-64
2022/07/16 11:44:34;;;;;;;3.97;1.67;;;22.60;57.20;;;;;;4397547;28;656534;-64
2022/07/16 11:47:23;;;;;;;4.80;1.33;;;21.30;58.60;;;;;;4392950;28;656351;-64
2022/07/16 11:50:11;;;;;;;4.13;1.47;;;21.40;59.40;;;;;;4392881;28;656681;-64
2022/07/16 11:52:58;;;;;;;5.73;1.23;;;21.00;58.10;;;;;;4428337;28;656678;-63
2022/07/16 11:55:46;;;;;;;2.53;1.17;;;20.30;60.10;;;;;;4406216;28;656836;-65
2022/07/16 11:58:33;;;;;;;3.57;1.30;;;19.60;62.90;;;;;;4432355;28;656901;-64
2022/07/16 12:01:24;;;;;;;3.80;1.20;;;19.40;64.90;;;;;;4410758;28;656663;-64
2022/07/16 12:04:12;;;;;;;8.17;1.70;;;19.50;64.10;;;;;;4401982;28;656473;-63
2022/07/16 12:06:59;;;;;;;4.93;1.40;;;20.10;63.70;;;;;;4424398;28;656606;-63
2022/07/16 12:09:47;;;;;;;4.30;1.30;;;20.40;62.30;;;;;;4404021;28;656657;-63
2022/07/16 12:12:36;;;;;;;2.77;1.27;;;20.60;61.90;;;;;;4414626;28;656104;-64
2022/07/16 12:15:23;;;;;;;2.93;1.63;;;21.40;62.20;;;;;;4404354;28;657159;-64
2022/07/16 12:18:14;;;;;;;6.43;1.57;;;22.30;59.80;;;;;;4405402;28;656559;-65
2022/07/16 12:21:27;;;;;;;4.57;1.60;;;22.30;57.30;;;;;;4397174;28;656375;-64
2022/07/16 12:24:14;;;;;;;7.03;1.60;;;21.80;63.40;;;;;;4391225;28;656228;-64
2022/07/16 12:27:01;;;;;;;4.57;1.37;;;22.00;60.50;;;;;;4406164;28;657096;-64
2022/07/16 12:29:50;;;;;;;7.90;1.60;;;21.80;61.50;;;;;;4424112;28;656520;-64
2022/07/16 12:32:47;;;;;;;6.53;1.50;;;21.80;60.70;;;;;;4393369;28;658067;-65
2022/07/16 12:35:38;;;;;;;5.83;1.50;;;21.90;62.30;;;;;;4403173;28;657746;-64
2022/07/16 12:38:55;;;;;;;5.10;1.50;;;22.10;63.70;;;;;;4378968;28;656852;-65
2022/07/16 12:41:43;;;;;;;5.90;1.40;;;21.80;61.50;;;;;;4383011;28;657543;-64
2022/07/16 12:44:30;;;;;;;4.00;1.67;;;21.00;62.10;;;;;;4398011;28;656415;-65
2022/07/16 12:47:17;;;;;;;6.33;1.50;;;20.70;62.70;;;;;;4423696;28;656873;-64
2022/07/16 12:50:06;;;;;;;4.23;1.20;;;20.00;63.70;;;;;;4424501;28;656207;-64
2022/07/16 12:52:53;;;;;;;6.47;2.00;;;20.40;63.30;;;;;;4399935;28;657249;-63
2022/07/16 12:58:49;;;;;;;4.07;1.50;;;20.40;62.90;;;;;;4397389;28;656622;-64
2022/07/16 13:01:37;;;;;;;5.07;1.60;;;21.00;63.60;;;;;;4404850;28;656773;-64
2022/07/16 13:04:24;;;;;;;6.57;1.70;;;21.40;64.00;;;;;;4419372;28;656759;-64
2022/07/16 13:07:11;;;;;;;5.60;1.90;;;21.30;62.00;;;;;;4405969;28;656785;-63
2022/07/16 13:09:58;;;;;;;5.17;1.50;;;21.20;64.40;;;;;;4422737;28;657213;-64
2022/07/16 13:12:47;;;;;;;4.27;1.50;;;22.60;65.30;;;;;;4396568;28;656615;-65
2022/07/16 13:15:34;;;;;;;3.50;1.53;;;23.60;59.40;;;;;;4425166;28;656531;-64
2022/07/16 13:18:21;;;;;;;7.67;1.90;;;22.30;59.30;;;;;;4407604;28;656819;-64
2022/07/16 13:21:08;;;;;;;4.20;1.50;;;22.00;58.20;;;;;;4417872;28;656994;-64
2022/07/16 13:23:55;;;;;;;4.83;1.30;;;21.60;60.10;;;;;;4409125;28;657036;-65
2022/07/16 13:26:43;;;;;;;3.60;1.40;;;21.60;61.20;;;;;;4422004;28;656824;-64
2022/07/16 13:29:31;;;;;;;7.80;1.70;;;21.70;60.80;;;;;;4418995;28;656699;-65
2022/07/16 13:32:19;;;;;;;7.23;1.37;;;21.70;60.60;;;;;;4427977;28;657037;-64
2022/07/16 13:35:06;;;;;;;4.50;1.33;;;21.60;61.10;;;;;;4408742;28;656691;-64
2022/07/16 13:37:53;;;;;;;3.83;1.67;;;21.80;60.20;;;;;;4424721;28;656643;-64
2022/07/16 13:40:40;;;;;;;4.33;1.50;;;21.90;61.20;;;;;;4408804;28;656411;-64
2022/07/16 13:43:28;;;;;;;8.50;1.43;;;22.90;61.50;;;;;;4415626;28;656156;-64
2022/07/16 13:46:17;;;;;;;3.67;1.63;;;23.00;58.00;;;;;;4408529;28;656839;-65
2022/07/16 13:49:04;;;;;;;4.30;1.37;;;23.10;56.80;;;;;;4428005;28;656811;-64
2022/07/16 13:51:51;;;;;;;4.20;1.40;;;23.00;58.00;;;;;;4409289;28;657122;-64
2022/07/16 13:54:38;;;;;;;4.00;1.50;;;23.20;56.60;;;;;;4415682;28;658552;-63
2022/07/16 14:00:30;;;;;;;3.07;1.30;;;22.40;57.30;;;;;;4399191;28;656885;-65
2022/07/16 14:03:20;;;;;;;5.43;1.30;;;22.20;57.30;;;;;;4411372;28;658215;-64
2022/07/16 14:06:08;;;;;;;4.83;1.80;;;21.90;56.90;;;;;;4396513;28;657852;-63
2022/07/16 14:08:55;;;;;;;4.23;1.60;;;21.80;59.30;;;;;;4397234;28;656634;-63
2022/07/16 14:11:43;;;;;;;3.53;1.40;;;21.60;59.10;;;;;;4410561;28;657374;-64
2022/07/16 14:14:31;;;;;;;4.53;1.57;;;22.10;58.30;;;;;;4423612;28;656896;-65
2022/07/16 14:17:36;;;;;;;6.93;1.37;;;21.80;57.00;;;;;;4430502;28;657924;-63
2022/07/16 14:21:05;;;;;;;4.43;1.40;;;21.30;60.00;;;;;;4408211;28;657278;-63
2022/07/16 14:23:53;;;;;;;4.30;1.60;;;21.00;58.90;;;;;;4398666;28;656552;-63
2022/07/16 14:26:42;;;;;;;5.30;1.30;;;20.50;60.40;;;;;;4404587;28;656639;-64
2022/07/16 14:29:29;;;;;;;3.33;1.50;;;20.30;59.80;;;;;;4425597;28;656143;-63
2022/07/16 14:32:16;;;;;;;6.43;1.40;;;20.20;59.70;;;;;;4411501;28;656574;-63
2022/07/16 14:35:04;;;;;;;3.37;1.20;;;20.50;59.60;;;;;;4430764;28;657353;-63
2022/07/16 14:37:52;;;;;;;5.07;1.40;;;20.50;59.40;;;;;;4412064;28;656377;-63